Time;durP1;ratioP1;P1;durP2;ratioP2;P2;SDS_P1;SDS_P2;PMS_P1;PMS_P2;Temp;Humidity;BMP_temperature;BMP_pressure;BME280_temperature;BME280_humidity;BME280_pressure;Samples;Min_cycle;Max_cycle;Signal;HPM_P1;HPM_P2
2023/03/10 00:01:10;;;;;;;6.07;2.23;;;;;6.40;94483.00;;;;8380558;28;20255;-76
2023/03/10 00:05:15;;;;;;;6.90;2.23;;;;;6.50;94475.00;;;;8374249;28;20260;-76
2023/03/10 00:09:19;;;;;;;7.30;2.40;;;;;6.50;94479.00;;;;8358805;28;20197;-76
2023/03/10 00:13:23;;;;;;;4.27;2.27;;;;;6.60;94478.00;;;;8382623;28;20196;-76
2023/03/10 00:17:29;;;;;;;7.13;2.53;;;;;6.70;94475.00;;;;8358510;28;20196;-76
2023/03/10 00:21:34;;;;;;;5.17;2.47;;;;;6.80;94464.00;;;;8374052;28;20224;-75
2023/03/10 00:25:41;;;;;;;8.60;2.43;;;;;7.00;94465.00;;;;8370495;28;20231;-76
2023/03/10 00:29:51;;;;;;;4.00;2.40;;;;;7.10;94466.00;;;;8369260;28;20302;-77
2023/03/10 00:33:59;;;;;;;7.33;2.60;;;;;7.20;94471.00;;;;8366244;28;20212;-76
2023/03/10 00:38:02;;;;;;;5.27;2.37;;;;;7.20;94460.00;;;;8381178;28;20193;-76
2023/03/10 00:42:07;;;;;;;8.33;2.40;;;;;7.10;94455.00;;;;8364397;28;20938;-76
2023/03/10 00:46:13;;;;;;;3.57;2.57;;;;;7.00;94456.00;;;;8368713;28;20321;-76
2023/03/10 00:50:16;;;;;;;2.80;2.37;;;;;6.80;94442.00;;;;8381408;28;20664;-77
2023/03/10 00:54:19;;;;;;;5.83;2.37;;;;;6.70;94443.00;;;;8377110;28;20541;-76
2023/03/10 00:58:24;;;;;;;12.67;3.00;;;;;6.60;94434.00;;;;8376240;28;20196;-76
2023/03/10 01:02:28;;;;;;;5.60;2.20;;;;;6.60;94417.00;;;;8378307;28;20228;-77
2023/03/10 01:06:34;;;;;;;9.53;2.50;;;;;6.50;94411.00;;;;8384469;28;20204;-77
2023/03/10 01:10:40;;;;;;;12.10;2.90;;;;;6.50;94396.00;;;;8388785;28;20199;-77
2023/03/10 01:14:47;;;;;;;7.57;2.83;;;;;6.50;94393.00;;;;8389490;28;20599;-77
2023/03/10 01:18:50;;;;;;;10.87;2.60;;;;;6.60;94389.00;;;;8375187;28;20285;-77
2023/03/10 01:22:53;;;;;;;6.03;2.43;;;;;6.70;94373.00;;;;8378720;28;20631;-77
2023/03/10 01:27:03;;;;;;;11.27;2.60;;;;;6.70;94367.00;;;;8388653;28;20208;-77
2023/03/10 01:31:09;;;;;;;5.50;2.57;;;;;6.80;94365.00;;;;8376119;28;20223;-76
2023/03/10 01:35:15;;;;;;;8.70;2.57;;;;;6.90;94348.00;;;;8368482;28;20914;-77
2023/03/10 01:39:23;;;;;;;5.27;2.87;;;;;7.00;94344.00;;;;8373570;28;20204;-77
2023/03/10 01:43:38;;;;;;;6.57;2.40;;;;;7.10;94345.00;;;;8381720;28;20313;-76
2023/03/10 01:47:45;;;;;;;8.63;2.67;;;;;7.10;94334.00;;;;8363280;28;20205;-76
2023/03/10 01:51:57;;;;;;;6.13;2.63;;;;;7.10;94319.00;;;;8361968;28;20281;-76
2023/03/10 01:56:04;;;;;;;9.43;2.53;;;;;7.00;94307.00;;;;8376491;28;20257;-76
2023/03/10 02:00:12;;;;;;;6.43;2.50;;;;;7.00;94310.00;;;;8373853;28;20208;-76
2023/03/10 02:04:22;;;;;;;5.80;2.70;;;;;6.90;94294.00;;;;8379389;28;20250;-76
2023/03/10 02:08:30;;;;;;;7.30;2.37;;;;;6.80;94299.00;;;;8370156;28;20817;-76
2023/03/10 02:12:33;;;;;;;8.43;2.50;;;;;6.70;94298.00;;;;8374978;28;20204;-77
2023/03/10 02:16:38;;;;;;;7.90;2.57;;;;;6.60;94296.00;;;;8373746;28;20208;-77
2023/03/10 02:20:47;;;;;;;9.10;2.83;;;;;6.40;94287.00;;;;8364202;28;20245;-77
2023/03/10 02:24:56;;;;;;;7.90;2.50;;;;;6.40;94280.00;;;;8375576;28;20192;-76
2023/03/10 02:29:04;;;;;;;9.67;2.50;;;;;6.20;94269.00;;;;8379491;28;20531;-77
2023/03/10 02:33:11;;;;;;;8.67;3.27;;;;;6.20;94255.00;;;;8375155;28;20254;-76
2023/03/10 02:37:26;;;;;;;4.43;2.50;;;;;6.10;94245.00;;;;8376199;28;20196;-77
2023/03/10 02:41:36;;;;;;;9.90;2.70;;;;;6.10;94227.00;;;;8378862;28;20224;-76
2023/03/10 02:45:44;;;;;;;6.30;2.63;;;;;6.10;94214.00;;;;8378730;28;20633;-76
2023/03/10 02:49:48;;;;;;;11.27;3.00;;;;;6.30;94226.00;;;;8374328;28;20205;-76
2023/03/10 02:53:52;;;;;;;7.70;2.70;;;;;6.40;94217.00;;;;8372732;28;20200;-77
2023/03/10 02:57:57;;;;;;;8.93;2.70;;;;;6.50;94213.00;;;;8372420;28;20193;-76
2023/03/10 03:02:01;;;;;;;6.60;2.73;;;;;6.70;94203.00;;;;8407995;22;20219;-76
2023/03/10 03:06:05;;;;;;;5.13;2.57;;;;;6.70;94183.00;;;;8436257;28;20633;-77
2023/03/10 03:10:09;;;;;;;6.37;2.50;;;;;6.80;94199.00;;;;8444291;28;20654;-76
2023/03/10 03:14:18;;;;;;;5.07;2.33;;;;;6.90;94230.00;;;;8445246;28;20199;-77
2023/03/10 03:18:23;;;;;;;7.43;2.60;;;;;7.10;94224.00;;;;8443060;28;20226;-76
2023/03/10 03:22:26;;;;;;;10.47;3.10;;;;;7.30;94214.00;;;;8436587;28;20759;-77
2023/03/10 03:26:29;;;;;;;5.00;2.63;;;;;7.40;94197.00;;;;8449195;28;20889;-78
2023/03/10 03:30:33;;;;;;;8.03;2.93;;;;;7.30;94196.00;;;;8438332;28;20191;-77
2023/03/10 03:34:37;;;;;;;5.03;2.53;;;;;7.40;94205.00;;;;8442040;28;20275;-78
2023/03/10 03:38:41;;;;;;;6.63;2.83;;;;;7.40;94201.00;;;;8439118;28;20194;-77
2023/03/10 03:42:48;;;;;;;10.67;2.60;;;;;7.40;94190.00;;;;8435469;28;20230;-77
2023/03/10 03:46:53;;;;;;;8.80;2.80;;;;;7.30;94207.00;;;;8438235;28;20285;-75
2023/03/10 03:50:59;;;;;;;5.23;2.30;;;;;7.40;94221.00;;;;8432284;28;20558;-76
2023/03/10 03:55:03;;;;;;;9.07;2.77;;;;;7.40;94212.00;;;;8441732;28;20204;-76
2023/03/10 03:59:06;;;;;;;4.37;2.70;;;;;7.40;94215.00;;;;8440658;28;20723;-75
2023/03/10 04:03:09;;;;;;;4.50;2.87;;;;;7.30;94208.00;;;;8411760;28;20286;-76
2023/03/10 04:07:15;;;;;;;5.27;2.80;;;;;7.30;94208.00;;;;8407455;28;20198;-76
2023/03/10 04:11:18;;;;;;;9.33;2.50;;;;;7.30;94198.00;;;;8415537;28;20644;-76
2023/03/10 04:15:23;;;;;;;7.50;2.50;;;;;7.20;94188.00;;;;8398977;28;20200;-76
2023/03/10 04:19:31;;;;;;;6.67;2.47;;;;;7.20;94201.00;;;;8400388;28;20207;-76
2023/03/10 04:23:40;;;;;;;8.93;2.60;;;;;7.20;94212.00;;;;8392383;28;20231;-75
2023/03/10 04:27:47;;;;;;;4.43;2.80;;;;;7.20;94237.00;;;;8420778;28;20225;-78
2023/03/10 04:31:51;;;;;;;2.97;2.47;;;;;7.20;94246.00;;;;8419744;28;20196;-77
2023/03/10 04:36:11;;;;;;;6.63;2.67;;;;;7.20;94245.00;;;;8420507;28;20191;-80
2023/03/10 04:40:18;;;;;;;4.20;2.57;;;;;7.20;94259.00;;;;8409350;28;20203;-77
2023/03/10 04:44:21;;;;;;;4.73;2.50;;;;;7.10;94250.00;;;;8419933;28;20276;-80
2023/03/10 04:48:33;;;;;;;9.77;2.57;;;;;7.10;94243.00;;;;8429384;28;20198;-79
2023/03/10 04:52:38;;;;;;;12.40;2.63;;;;;7.30;94242.00;;;;8415381;28;20254;-76
2023/03/10 04:56:42;;;;;;;4.77;1.73;;;;;7.40;94236.00;;;;8416743;28;20256;-77
2023/03/10 05:00:46;;;;;;;6.87;2.90;;;;;7.50;94231.00;;;;8420530;28;20187;-77
2023/03/10 05:05:05;;;;;;;15.53;2.67;;;;;7.60;94230.00;;;;8411673;28;20204;-75
2023/03/10 05:09:09;;;;;;;4.00;2.37;;;;;7.70;94240.00;;;;8417720;28;20200;-75
2023/03/10 05:13:15;;;;;;;5.20;2.13;;;;;7.80;94222.00;;;;8413534;28;20207;-72
2023/03/10 05:17:20;;;;;;;7.13;1.80;;;;;7.90;94214.00;;;;8410312;28;20249;-74
2023/03/10 05:21:26;;;;;;;2.67;1.90;;;;;8.00;94205.00;;;;8409319;28;20231;-71
2023/03/10 05:25:30;;;;;;;4.57;1.70;;;;;8.10;94217.00;;;;8402609;28;20204;-72
2023/03/10 05:29:34;;;;;;;2.37;1.70;;;;;8.20;94207.00;;;;8402649;28;20206;-73
2023/03/10 05:33:39;;;;;;;3.92;1.70;;;;;8.30;94225.00;;;;8406825;28;20219;-76
2023/03/10 05:37:45;;;;;;;8.10;1.70;;;;;8.30;94231.00;;;;8405043;28;20287;-74
2023/03/10 05:41:52;;;;;;;5.00;2.27;;;;;8.30;94230.00;;;;8402992;28;20227;-73
2023/03/10 05:45:59;;;;;;;2.73;1.57;;;;;8.30;94214.00;;;;8415511;28;20210;-73
2023/03/10 05:50:01;;;;;;;3.73;1.53;;;;;8.40;94206.00;;;;8415035;28;20212;-73
2023/03/10 05:54:05;;;;;;;3.40;1.63;;;;;8.40;94198.00;;;;8407196;28;20618;-74
2023/03/10 05:58:08;;;;;;;1.73;1.40;;;;;8.40;94207.00;;;;8406881;28;20222;-74
2023/03/10 06:02:13;;;;;;;1.93;1.30;;;;;8.40;94213.00;;;;8416403;28;20637;-75
2023/03/10 06:06:18;;;;;;;0.90;0.90;;;;;8.50;94180.00;;;;8412802;28;20262;-75
2023/03/10 06:10:23;;;;;;;2.23;1.00;;;;;8.60;94194.00;;;;8407086;28;20203;-74
2023/03/10 06:14:27;;;;;;;1.27;0.87;;;;;8.60;94210.00;;;;8406905;28;20248;-74
2023/03/10 06:18:32;;;;;;;1.30;1.30;;;;;8.70;94197.00;;;;8414978;28;20192;-74
2023/03/10 06:22:37;;;;;;;6.83;3.90;;;;;8.70;94187.00;;;;8413993;28;20230;-75
2023/03/10 06:26:41;;;;;;;10.60;5.93;;;;;8.80;94182.00;;;;8403863;28;20930;-75
2023/03/10 06:30:44;;;;;;;14.25;6.95;;;;;8.90;94186.00;;;;8410058;28;20799;-75
2023/03/10 06:34:49;;;;;;;78.15;24.17;;;;;8.90;94176.00;;;;8408817;28;20198;-75
2023/03/10 06:38:57;;;;;;;37.80;11.10;;;;;8.90;94188.00;;;;8410368;28;20196;-75
2023/03/10 06:43:05;;;;;;;28.63;8.97;;;;;9.00;94185.00;;;;8414855;28;20803;-76
2023/03/10 06:47:08;;;;;;;19.65;6.35;;;;;9.00;94178.00;;;;8416601;28;20199;-76
2023/03/10 06:51:17;;;;;;;20.37;7.70;;;;;9.10;94167.00;;;;8414912;28;20292;-76
2023/03/10 06:55:20;;;;;;;5.97;3.07;;;;;9.10;94180.00;;;;8412938;28;20277;-76
2023/03/10 06:59:23;;;;;;;12.65;4.50;;;;;9.10;94164.00;;;;8406021;28;20196;-76
2023/03/10 07:03:27;;;;;;;13.45;4.65;;;;;9.10;94167.00;;;;8413123;28;20845;-77
2023/03/10 07:07:32;;;;;;;17.85;4.90;;;;;9.10;94172.00;;;;8410009;28;20203;-75
2023/03/10 07:11:39;;;;;;;11.20;4.20;;;;;9.10;94167.00;;;;8410390;28;20231;-75
2023/03/10 07:15:42;;;;;;;8.00;3.20;;;;;9.10;94171.00;;;;8408126;28;20566;-76
2023/03/10 07:19:51;;;;;;;3.08;2.20;;;;;9.10;94167.00;;;;8413911;28;20226;-75
2023/03/10 07:23:58;;;;;;;14.47;4.87;;;;;9.10;94162.00;;;;8414646;28;20252;-76
2023/03/10 07:28:08;;;;;;;42.50;18.58;;;;;9.20;94163.00;;;;8409323;28;20203;-75
2023/03/10 07:32:13;;;;;;;4.23;3.17;;;;;9.30;94161.00;;;;8401110;28;20203;-74
2023/03/10 07:36:18;;;;;;;6.30;3.33;;;;;9.50;94160.00;;;;8408983;28;20199;-76
2023/03/10 07:40:25;;;;;;;9.18;4.45;;;;;9.60;94161.00;;;;8408039;28;20199;-75
2023/03/10 07:44:29;;;;;;;6.07;4.60;;;;;9.60;94162.00;;;;8407036;28;20227;-76
2023/03/10 07:48:34;;;;;;;2.38;2.17;;;;;9.70;94156.00;;;;8409200;28;20204;-75
2023/03/10 07:52:37;;;;;;;4.53;4.13;;;;;9.90;94145.00;;;;8412960;28;20290;-75
2023/03/10 07:56:43;;;;;;;3.10;2.00;;;;;10.20;94135.00;;;;8408853;28;20269;-75
2023/03/10 08:00:53;;;;;;;2.33;1.63;;;;;10.40;94142.00;;;;8398039;28;20200;-74
2023/03/10 08:04:56;;;;;;;3.70;1.80;;;;;10.70;94137.00;;;;8407920;28;20245;-75
2023/03/10 08:09:06;;;;;;;1.30;1.20;;;;;11.10;94133.00;;;;8411844;28;20246;-74
2023/03/10 08:13:11;;;;;;;1.67;1.40;;;;;11.40;94136.00;;;;8413221;28;20203;-75
2023/03/10 08:17:18;;;;;;;2.03;1.40;;;;;11.70;94129.00;;;;8412721;28;20186;-75
2023/03/10 08:21:22;;;;;;;1.50;1.50;;;;;11.90;94127.00;;;;8396615;28;20219;-75
2023/03/10 08:25:27;;;;;;;1.17;1.17;;;;;12.00;94118.00;;;;8400476;28;20242;-75
2023/03/10 08:29:32;;;;;;;1.33;1.25;;;;;12.10;94118.00;;;;8401041;28;20606;-74
2023/03/10 08:33:35;;;;;;;1.30;1.20;;;;;12.10;94108.00;;;;8405662;28;20558;-75
2023/03/10 08:37:41;;;;;;;2.15;1.20;;;;;12.30;94120.00;;;;8410476;28;20671;-75
2023/03/10 08:41:48;;;;;;;7.70;5.22;;;;;12.50;94120.00;;;;8409325;28;20635;-75
2023/03/10 08:45:53;;;;;;;2.58;1.30;;;;;12.60;94115.00;;;;8411276;28;20230;-75
2023/03/10 08:49:56;;;;;;;2.22;2.13;;;;;12.60;94116.00;;;;8398602;28;20864;-75
2023/03/10 08:54:03;;;;;;;1.23;1.23;;;;;12.60;94122.00;;;;8411722;28;20199;-75
2023/03/10 08:58:06;;;;;;;1.55;1.45;;;;;12.60;94119.00;;;;8409678;28;20218;-76
2023/03/10 09:02:14;;;;;;;1.40;1.40;;;;;12.70;94124.00;;;;8407777;28;20746;-76
2023/03/10 09:06:17;;;;;;;1.25;1.25;;;;;12.80;94118.00;;;;8386498;28;20602;-75
2023/03/10 09:10:23;;;;;;;1.38;1.33;;;;;12.80;94130.00;;;;8409189;28;22051;-76
2023/03/10 09:14:26;;;;;;;1.05;1.05;;;;;13.00;94120.00;;;;8412275;28;20202;-78
2023/03/10 09:18:34;;;;;;;2.05;1.50;;;;;13.00;94124.00;;;;8392523;28;20228;-78
2023/03/10 09:22:37;;;;;;;3.80;1.30;;;;;13.10;94122.00;;;;8403609;28;20203;-78
2023/03/10 09:26:44;;;;;;;2.08;1.15;;;;;13.10;94121.00;;;;8403663;28;20643;-77
2023/03/10 09:30:49;;;;;;;1.20;1.20;;;;;13.20;94130.00;;;;8416163;28;20207;-78
2023/03/10 09:34:56;;;;;;;1.20;1.10;;;;;13.50;94121.00;;;;8406146;28;20206;-76
2023/03/10 09:39:01;;;;;;;1.20;1.20;;;;;13.80;94131.00;;;;8400773;28;20243;-76
2023/03/10 09:43:06;;;;;;;1.40;1.40;;;;;13.90;94109.00;;;;8413004;28;20231;-75
2023/03/10 09:47:26;;;;;;;1.23;1.15;;;;;13.80;94119.00;;;;8401613;28;20195;-76
2023/03/10 09:51:31;;;;;;;2.35;1.40;;;;;13.80;94109.00;;;;8410738;28;20194;-76
2023/03/10 09:55:46;;;;;;;3.38;2.65;;;;;13.90;94106.00;;;;8402566;28;20730;-76
2023/03/10 09:59:55;;;;;;;1.77;1.67;;;;;14.00;94097.00;;;;8407201;28;20203;-76
2023/03/10 10:04:03;;;;;;;2.15;2.00;;;;;14.20;94110.00;;;;8408281;28;20680;-75
2023/03/10 10:08:19;;;;;;;1.77;1.65;;;;;14.90;94103.00;;;;8409515;28;20192;-78
2023/03/10 10:12:25;;;;;;;1.10;1.10;;;;;14.90;94097.00;;;;8407138;28;20198;-78
2023/03/10 10:16:36;;;;;;;1.55;1.23;;;;;14.80;94096.00;;;;8406483;28;20296;-78
2023/03/10 10:20:48;;;;;;;1.25;1.08;;;;;15.00;94096.00;;;;8410030;28;20211;-76
2023/03/10 10:25:13;;;;;;;1.35;1.25;;;;;15.40;94087.00;;;;8417889;28;20629;-76
2023/03/10 10:29:26;;;;;;;2.03;1.27;;;;;15.30;94069.00;;;;8411959;28;20207;-77
2023/03/10 10:33:52;;;;;;;2.10;1.98;;;;;15.50;94073.00;;;;8411559;28;20221;-75
2023/03/10 10:38:05;;;;;;;1.05;1.05;;;;;15.50;94063.00;;;;8413442;28;20290;-76
2023/03/10 10:42:18;;;;;;;1.25;1.25;;;;;15.10;94065.00;;;;8405253;28;20195;-77
2023/03/10 10:46:31;;;;;;;1.00;1.00;;;;;14.70;94063.00;;;;8407887;28;20679;-77
2023/03/10 10:50:36;;;;;;;0.98;0.98;;;;;14.20;94075.00;;;;8386147;28;20209;-77
2023/03/10 10:54:46;;;;;;;2.42;1.13;;;;;13.90;94069.00;;;;8413269;28;20207;-78
2023/03/10 10:59:06;;;;;;;0.98;0.90;;;;;13.90;94040.00;;;;8406598;28;20256;-78
2023/03/10 11:03:19;;;;;;;0.90;0.90;;;;;14.20;94040.00;;;;8410447;28;20238;-78
2023/03/10 11:07:26;;;;;;;0.85;0.85;;;;;14.40;94042.00;;;;8415250;28;20196;-80
2023/03/10 11:11:37;;;;;;;0.80;0.80;;;;;14.50;94021.00;;;;8403892;28;20195;-80
2023/03/10 11:15:54;;;;;;;1.08;0.98;;;;;14.70;94018.00;;;;8411502;28;20253;-80
2023/03/10 11:20:07;;;;;;;0.90;0.90;;;;;15.10;94021.00;;;;8410182;28;20199;-78
2023/03/10 11:24:16;;;;;;;0.90;0.90;;;;;15.30;94021.00;;;;8414489;28;20227;-79
2023/03/10 11:28:41;;;;;;;0.75;0.75;;;;;15.20;94028.00;;;;8403560;28;20204;-80
2023/03/10 11:33:12;;;;;;;1.20;1.20;;;;;15.10;94014.00;;;;8416301;28;20198;-81
2023/03/10 11:37:28;;;;;;;1.33;1.10;;;;;15.40;94014.00;;;;8403194;28;20203;-83
2023/03/10 11:41:44;;;;;;;0.90;0.90;;;;;15.50;94017.00;;;;8403676;28;20195;-81
2023/03/10 11:45:53;;;;;;;1.10;1.00;;;;;15.50;93987.00;;;;8406409;28;20249;-82
2023/03/10 11:50:10;;;;;;;1.00;1.00;;;;;15.40;94020.00;;;;8407805;28;20248;-84
2023/03/10 11:54:16;;;;;;;1.23;1.23;;;;;15.20;94022.00;;;;8398858;28;20204;-80
2023/03/10 11:58:32;;;;;;;0.95;0.93;;;;;15.00;94022.00;;;;8415115;28;20200;-82
2023/03/10 12:02:47;;;;;;;1.00;1.00;;;;;14.80;94021.00;;;;8413828;28;20310;-79
2023/03/10 12:06:58;;;;;;;1.02;0.93;;;;;14.80;94023.00;;;;8418236;28;20731;-77
2023/03/10 12:11:04;;;;;;;1.13;1.10;;;;;14.80;94015.00;;;;8398751;28;20583;-79
2023/03/10 12:15:17;;;;;;;1.38;0.98;;;;;14.90;94027.00;;;;8396850;28;20184;-79
2023/03/10 12:19:21;;;;;;;0.90;0.90;;;;;15.10;94012.00;;;;8391087;28;20258;-76
2023/03/10 12:23:40;;;;;;;1.02;0.90;;;;;15.00;93996.00;;;;8409887;28;20289;-81
2023/03/10 12:28:12;;;;;;;1.13;1.13;;;;;15.10;93989.00;;;;8414825;28;20248;-79
2023/03/10 12:32:43;;;;;;;1.83;1.02;;;;;15.20;93989.00;;;;8414841;28;20252;-79
2023/03/10 12:36:47;;;;;;;1.85;1.00;;;;;15.30;93978.00;;;;8421161;28;20267;-78
2023/03/10 12:40:55;;;;;;;2.17;0.90;;;;;15.30;94005.00;;;;8426076;28;20203;-78
2023/03/10 12:45:16;;;;;;;0.98;0.98;;;;;15.20;93992.00;;;;8435218;28;20219;-78
2023/03/10 12:49:37;;;;;;;1.40;1.10;;;;;15.20;93988.00;;;;8394893;28;20248;-78
2023/03/10 12:53:49;;;;;;;1.55;1.20;;;;;15.20;93985.00;;;;8418933;28;20204;-78
2023/03/10 12:58:10;;;;;;;0.90;0.90;;;;;15.10;93992.00;;;;8416750;28;20799;-78
2023/03/10 13:02:30;;;;;;;0.90;0.90;;;;;15.10;94000.00;;;;8401490;28;20231;-77
2023/03/10 13:06:43;;;;;;;2.50;1.17;;;;;14.90;93997.00;;;;8415363;28;20774;-77
2023/03/10 13:10:51;;;;;;;1.10;1.10;;;;;14.80;93994.00;;;;8419273;28;20625;-77
2023/03/10 13:14:58;;;;;;;1.38;0.98;;;;;14.70;93988.00;;;;8419906;28;20206;-77
2023/03/10 13:19:04;;;;;;;1.40;1.30;;;;;14.60;93995.00;;;;8416555;28;20297;-77
2023/03/10 13:23:21;;;;;;;2.38;1.25;;;;;14.60;93990.00;;;;8428266;28;20224;-77
2023/03/10 13:27:32;;;;;;;4.78;1.10;;;;;14.60;93997.00;;;;8411318;28;20660;-74
2023/03/10 13:31:40;;;;;;;2.95;1.02;;;;;14.70;93984.00;;;;8414297;28;20211;-74
2023/03/10 13:35:45;;;;;;;1.45;1.10;;;;;14.80;93985.00;;;;8416077;28;21041;-75
2023/03/10 13:39:49;;;;;;;2.92;1.08;;;;;14.90;93994.00;;;;8427972;28;20195;-75
2023/03/10 13:43:54;;;;;;;1.17;1.00;;;;;15.00;93996.00;;;;8418633;28;20719;-75
2023/03/10 13:48:02;;;;;;;3.47;1.17;;;;;14.80;93995.00;;;;8416983;28;20187;-74
2023/03/10 13:52:13;;;;;;;0.90;0.90;;;;;14.40;94006.00;;;;8422300;28;20665;-74
2023/03/10 13:56:22;;;;;;;1.65;1.00;;;;;14.40;93992.00;;;;8424802;28;20199;-74
2023/03/10 14:00:29;;;;;;;1.00;1.00;;;;;14.20;93994.00;;;;8409789;28;20191;-74
2023/03/10 14:04:43;;;;;;;1.10;1.00;;;;;13.90;93990.00;;;;8405565;28;20341;-75
2023/03/10 14:08:51;;;;;;;0.90;0.90;;;;;13.70;93985.00;;;;8389968;28;20273;-73
2023/03/10 14:12:55;;;;;;;2.75;2.55;;;;;13.80;93975.00;;;;8381614;28;20184;-78
2023/03/10 14:17:05;;;;;;;0.90;0.90;;;;;13.90;93966.00;;;;8399740;28;20203;-79
2023/03/10 14:21:33;;;;;;;0.80;0.80;;;;;14.00;93965.00;;;;8399911;28;20584;-79
2023/03/10 14:25:36;;;;;;;1.10;1.00;;;;;13.80;93974.00;;;;8398465;28;20223;-78
2023/03/10 14:29:52;;;;;;;1.77;0.90;;;;;13.40;93993.00;;;;8400190;28;20203;-78
2023/03/10 14:33:55;;;;;;;0.98;0.95;;;;;12.80;94002.00;;;;8398189;28;20246;-78
2023/03/10 14:38:01;;;;;;;1.88;1.08;;;;;12.40;93995.00;;;;8399817;28;20526;-78
2023/03/10 14:42:17;;;;;;;0.95;0.95;;;;;12.40;93980.00;;;;8398600;28;20269;-77
2023/03/10 14:46:22;;;;;;;1.02;0.95;;;;;12.50;93982.00;;;;8399139;28;20250;-77
2023/03/10 14:50:31;;;;;;;3.80;1.50;;;;;12.60;93989.00;;;;8399311;28;20195;-78
2023/03/10 14:54:36;;;;;;;9.82;6.10;;;;;12.50;93993.00;;;;8399205;28;20199;-79
2023/03/10 14:58:44;;;;;;;3.13;2.17;;;;;12.50;93991.00;;;;8395572;28;20681;-77
2023/03/10 15:02:48;;;;;;;6.47;3.72;;;;;12.40;94008.00;;;;8398803;28;20239;-76
2023/03/10 15:06:56;;;;;;;2.25;2.05;;;;;11.90;94021.00;;;;8398148;28;20222;-76
2023/03/10 15:15:50;;;;;;;24.88;10.52;;;;;11.40;94022.00;;;;8396075;28;20250;-78
2023/03/10 15:19:55;;;;;;;9.73;6.10;;;;;11.40;94026.00;;;;8398153;28;20203;-78
2023/03/10 15:23:58;;;;;;;4.82;4.32;;;;;11.50;94020.00;;;;8397812;28;20242;-78
2023/03/10 15:28:03;;;;;;;7.40;4.57;;;;;11.30;94022.00;;;;8398876;28;20219;-78
2023/03/10 15:32:07;;;;;;;6.63;5.57;;;;;11.20;94017.00;;;;8398131;28;20260;-78
2023/03/10 15:36:11;;;;;;;1.98;1.88;;;;;11.30;94033.00;;;;8379938;28;20235;-82
2023/03/10 15:40:18;;;;;;;2.30;1.30;;;;;11.20;94018.00;;;;8397334;28;20515;-80
2023/03/10 15:44:30;;;;;;;1.80;1.05;;;;;11.20;94013.00;;;;8397162;28;20190;-80
2023/03/10 15:48:34;;;;;;;1.00;1.00;;;;;11.00;94025.00;;;;8397588;28;20253;-80
2023/03/10 15:52:39;;;;;;;1.10;1.10;;;;;10.80;94054.00;;;;8397088;28;20202;-81
2023/03/10 15:56:42;;;;;;;1.00;1.00;;;;;10.60;94060.00;;;;8397346;28;20190;-81
2023/03/10 16:00:46;;;;;;;0.98;0.98;;;;;10.50;94042.00;;;;8396574;28;20214;-81
2023/03/10 16:04:50;;;;;;;1.08;1.02;;;;;10.40;94046.00;;;;8397751;28;20229;-84
2023/03/10 16:08:56;;;;;;;2.17;1.27;;;;;10.20;94053.00;;;;8398834;28;20193;-83
2023/03/10 16:12:59;;;;;;;0.90;0.90;;;;;10.10;94060.00;;;;8404556;28;20238;-82
2023/03/10 16:17:10;;;;;;;1.30;1.20;;;;;9.90;94069.00;;;;8387294;28;20180;-84
2023/03/10 16:21:14;;;;;;;1.20;1.20;;;;;9.80;94080.00;;;;8404198;28;20229;-84
2023/03/10 16:25:20;;;;;;;1.40;1.35;;;;;9.60;94081.00;;;;8404458;28;20236;-84
2023/03/10 16:29:23;;;;;;;1.38;1.38;;;;;9.50;94087.00;;;;8402724;28;20211;-84
2023/03/10 16:33:28;;;;;;;1.20;1.20;;;;;9.40;94098.00;;;;8403680;28;20205;-81
2023/03/10 16:37:40;;;;;;;1.10;1.10;;;;;9.20;94078.00;;;;8403541;28;20196;-80
2023/03/10 16:41:45;;;;;;;1.55;1.55;;;;;9.10;94096.00;;;;8403499;28;20227;-79
2023/03/10 16:45:52;;;;;;;19.58;11.85;;;;;9.10;94093.00;;;;8401675;28;20223;-78
2023/03/10 16:49:59;;;;;;;14.48;11.43;;;;;8.90;94066.00;;;;8403190;28;20197;-79
2023/03/10 16:54:06;;;;;;;76.85;23.20;;;;;8.80;94082.00;;;;8403047;28;20279;-81
2023/03/10 16:58:18;;;;;;;46.70;19.98;;;;;8.70;94086.00;;;;8402549;28;20193;-82
2023/03/10 17:02:24;;;;;;;26.25;12.38;;;;;8.70;94073.00;;;;8402879;28;20588;-80
2023/03/10 17:06:33;;;;;;;6.73;6.20;;;;;8.70;94069.00;;;;8397587;28;20246;-81
2023/03/10 17:10:44;;;;;;;5.63;5.22;;;;;8.70;94081.00;;;;8401875;28;20560;-77
2023/03/10 17:14:49;;;;;;;40.28;35.22;;;;;8.70;94092.00;;;;8400739;28;20203;-78
2023/03/10 17:18:55;;;;;;;6.63;6.10;;;;;8.70;94102.00;;;;8402916;28;20222;-74
2023/03/10 17:23:00;;;;;;;3.67;3.00;;;;;8.70;94125.00;;;;8401127;28;20222;-73
2023/03/10 17:27:06;;;;;;;3.47;3.20;;;;;8.60;94131.00;;;;8402149;28;20649;-75
2023/03/10 17:31:12;;;;;;;2.92;2.72;;;;;8.60;94137.00;;;;8401726;28;20200;-75
2023/03/10 17:35:16;;;;;;;1.60;1.60;;;;;8.60;94142.00;;;;8401327;28;20184;-75
2023/03/10 17:39:22;;;;;;;6.82;6.35;;;;;8.50;94148.00;;;;8401043;28;20192;-75
2023/03/10 17:43:30;;;;;;;2.70;1.60;;;;;8.40;94165.00;;;;8400751;28;20214;-78
2023/03/10 17:47:38;;;;;;;1.30;1.30;;;;;8.30;94177.00;;;;8398359;28;20707;-76
2023/03/10 17:51:43;;;;;;;1.50;1.50;;;;;8.10;94176.00;;;;8401146;28;20196;-75
2023/03/10 17:55:48;;;;;;;2.00;1.98;;;;;8.00;94177.00;;;;8401410;28;20204;-74
2023/03/10 17:59:55;;;;;;;1.30;1.30;;;;;7.90;94206.00;;;;8401314;28;20651;-79
2023/03/10 18:04:01;;;;;;;0.97;0.97;;;;;7.90;94204.00;;;;8400709;28;20661;-78
2023/03/10 18:08:06;;;;;;;1.02;1.02;;;;;7.80;94220.00;;;;8401272;28;20227;-73
2023/03/10 18:12:12;;;;;;;4.00;3.33;;;;;7.70;94215.00;;;;8400113;28;20258;-73
2023/03/10 18:16:18;;;;;;;52.17;24.00;;;;;7.60;94222.00;;;;8400024;28;20212;-74
2023/03/10 18:20:23;;;;;;;8.83;5.27;;;;;7.50;94212.00;;;;8399904;28;20196;-77
2023/03/10 18:24:26;;;;;;;2.10;1.90;;;;;7.40;94202.00;;;;8399332;28;20196;-78
2023/03/10 18:28:34;;;;;;;1.27;1.27;;;;;7.30;94225.00;;;;8399229;28;20219;-77
2023/03/10 18:32:37;;;;;;;2.10;1.47;;;;;7.10;94211.00;;;;8398743;28;20196;-83
2023/03/10 18:37:12;;;;;;;1.57;1.47;;;;;7.00;94219.00;;;;8399506;28;20195;-82
2023/03/10 18:41:19;;;;;;;3.87;1.53;;;;;6.90;94229.00;;;;8399936;28;20201;-76
2023/03/10 18:45:24;;;;;;;2.00;1.90;;;;;6.80;94230.00;;;;8400649;28;20192;-76
2023/03/10 18:49:28;;;;;;;3.20;2.87;;;;;6.60;94229.00;;;;8398671;28;20220;-76
2023/03/10 18:53:34;;;;;;;4.13;3.83;;;;;6.60;94230.00;;;;8399266;28;20254;-77
2023/03/10 18:57:42;;;;;;;5.10;4.60;;;;;6.70;94227.00;;;;8398146;28;20200;-78
2023/03/10 19:01:49;;;;;;;2.70;1.87;;;;;6.70;94212.00;;;;8399209;28;20229;-76
2023/03/10 19:05:53;;;;;;;2.10;1.53;;;;;6.70;94213.00;;;;8398056;28;20196;-75
2023/03/10 19:09:59;;;;;;;11.03;1.63;;;;;6.60;94233.00;;;;8398698;28;20238;-77
2023/03/10 19:14:05;;;;;;;4.10;1.30;;;;;6.50;94205.00;;;;8398900;28;20196;-76
2023/03/10 19:18:11;;;;;;;5.40;1.87;;;;;6.40;94218.00;;;;8395903;28;20199;-75
2023/03/10 19:22:15;;;;;;;5.10;2.07;;;;;6.30;94214.00;;;;8398956;28;20253;-77
2023/03/10 19:26:19;;;;;;;1.67;1.50;;;;;6.30;94206.00;;;;8399341;28;20215;-75
2023/03/10 19:30:26;;;;;;;4.50;1.70;;;;;6.20;94203.00;;;;8398459;28;20207;-75
2023/03/10 19:34:34;;;;;;;4.60;2.03;;;;;6.10;94199.00;;;;8378245;28;20188;-76
2023/03/10 19:38:38;;;;;;;2.80;1.60;;;;;6.00;94194.00;;;;8397423;28;20222;-76
2023/03/10 19:42:42;;;;;;;7.27;1.97;;;;;6.00;94204.00;;;;8396847;28;20637;-74
2023/03/10 19:46:45;;;;;;;6.33;1.87;;;;;5.90;94216.00;;;;8397168;28;20263;-75
2023/03/10 19:50:55;;;;;;;5.07;1.90;;;;;6.00;94209.00;;;;8380911;28;20306;-75
2023/03/10 19:55:00;;;;;;;4.00;1.60;;;;;6.00;94200.00;;;;8398126;28;20196;-74
2023/03/10 19:59:05;;;;;;;4.40;2.00;;;;;6.10;94207.00;;;;8398047;28;20242;-75
2023/03/10 20:03:11;;;;;;;1.97;1.87;;;;;6.20;94207.00;;;;8397615;28;20273;-75
2023/03/10 20:07:19;;;;;;;6.53;2.70;;;;;6.20;94202.00;;;;8397172;28;20220;-75
2023/03/10 20:11:23;;;;;;;3.63;1.87;;;;;6.30;94209.00;;;;8397509;28;20603;-74
2023/03/10 20:15:27;;;;;;;2.77;2.03;;;;;6.40;94217.00;;;;8379521;28;20220;-75
2023/03/10 20:19:31;;;;;;;5.80;2.07;;;;;6.30;94238.00;;;;8396926;28;20203;-74
2023/03/10 20:23:37;;;;;;;1.67;1.57;;;;;6.10;94250.00;;;;8397240;28;20217;-74
2023/03/10 20:27:41;;;;;;;4.13;1.90;;;;;5.90;94241.00;;;;8397929;28;20258;-74
2023/03/10 20:31:46;;;;;;;2.33;2.13;;;;;5.90;94245.00;;;;8396750;28;20223;-74
2023/03/10 20:35:54;;;;;;;5.83;2.37;;;;;5.90;94244.00;;;;8395554;28;20196;-74
2023/03/10 20:40:00;;;;;;;2.47;2.27;;;;;6.00;94237.00;;;;8396471;28;20198;-74
2023/03/10 20:44:12;;;;;;;3.93;2.10;;;;;6.10;94244.00;;;;8396318;28;20199;-76
2023/03/10 20:48:16;;;;;;;6.07;2.67;;;;;6.10;94239.00;;;;8396196;28;20254;-76